Burton, Washington
Current Conditions -  °F | °C
As of 1:53 AM on Saturday 22 Nov 2014 (Local Time) from KSEA Reporting Station
Scattered Clouds Scattered Clouds  
Wind Chill: 43°   Ceiling: Unl
Heat Index: 47°   Visibility: 10mi
Dew Point: 39°   Wind: 8mph
Humidity: 74%   Direction: 230°SW
Pressure: 29.6"   Gusts: 17mph
Location:  47.39°N, 122.46°W
Report Text: KSEA 220953Z 23007G15KT 10SM SCT020 SCT095 08/04 A2960 RMK AO2 PK WND 23027/0856 SLP029 T00830039
Loading
Personal Weather Stations






























Interactive Weather Map New forecast layout! Learn more

10-Day Weather Forecast

Advertisements
Track Severe Weather on mobile